Time;durP1;ratioP1;P1;durP2;ratioP2;P2;SDS_P1;SDS_P2;PMS_P1;PMS_P2;Temp;Humidity;BMP_temperature;BMP_pressure;BME280_temperature;BME280_humidity;BME280_pressure;Samples;Min_cycle;Max_cycle;Signal;HPM_P1;HPM_P2
2021/12/19 00:09:38;;;;;;;11.40;7.45;;;-0.20;99.90;;;;;;5072088;28;20494;-74
2021/12/19 00:12:09;;;;;;;13.18;7.85;;;-0.20;99.90;;;;;;5074150;28;20482;-74
2021/12/19 00:14:44;;;;;;;11.75;7.03;;;-0.20;99.90;;;;;;5076951;28;20394;-74
2021/12/19 00:17:12;;;;;;;10.65;7.32;;;-0.30;99.90;;;;;;5076496;28;20037;-74
2021/12/19 00:19:39;;;;;;;11.07;6.80;;;-0.30;99.90;;;;;;5075539;28;20509;-74
2021/12/19 00:22:13;;;;;;;11.40;6.90;;;-0.30;99.90;;;;;;5076799;28;20145;-74
2021/12/19 00:24:40;;;;;;;13.45;8.13;;;-0.40;99.90;;;;;;5076158;28;20431;-74
2021/12/19 00:27:10;;;;;;;11.23;7.53;;;-0.30;99.90;;;;;;5076705;28;20049;-74
2021/12/19 00:29:39;;;;;;;18.08;8.77;;;-0.60;99.90;;;;;;5076482;28;20043;-74
2021/12/19 00:32:06;;;;;;;14.05;7.57;;;-0.60;99.90;;;;;;5076099;28;20045;-74
2021/12/19 00:34:34;;;;;;;13.77;7.75;;;-0.50;99.90;;;;;;5076159;28;20075;-74
2021/12/19 00:37:02;;;;;;;13.93;8.23;;;-0.50;99.90;;;;;;5057430;28;20045;-74
2021/12/19 00:39:31;;;;;;;14.35;8.52;;;-0.40;99.90;;;;;;5076910;28;20075;-74
2021/12/19 00:41:58;;;;;;;14.60;8.57;;;-0.90;99.90;;;;;;5075148;28;20123;-74
2021/12/19 00:45:01;;;;;;;14.05;7.50;;;-0.40;99.90;;;;;;5075655;28;20040;-74
2021/12/19 00:47:29;;;;;;;13.50;7.93;;;-0.70;99.90;;;;;;5076149;28;20135;-75
2021/12/19 00:49:56;;;;;;;12.75;7.55;;;-0.60;99.90;;;;;;5075893;28;20037;-74
2021/12/19 00:52:42;;;;;;;15.02;7.65;;;-0.60;99.90;;;;;;5075210;28;20044;-74
2021/12/19 00:55:18;;;;;;;13.70;7.85;;;-0.60;99.90;;;;;;5076171;28;20036;-74
2021/12/19 00:57:46;;;;;;;13.13;7.45;;;-0.60;99.90;;;;;;5075790;28;20041;-74
2021/12/19 01:00:17;;;;;;;13.38;7.07;;;-0.50;99.90;;;;;;5075765;28;20093;-74
2021/12/19 01:02:44;;;;;;;13.82;7.72;;;-0.50;99.90;;;;;;5115133;22;20577;-74
2021/12/19 01:05:14;;;;;;;14.50;7.78;;;-0.40;99.90;;;;;;5055760;28;20098;-74
2021/12/19 01:07:43;;;;;;;14.15;8.57;;;-0.30;99.90;;;;;;5056338;28;20483;-74
2021/12/19 01:13:39;;;;;;;11.98;7.18;;;-0.40;99.90;;;;;;5054187;28;20545;-73
2021/12/19 01:16:56;;;;;;;12.50;7.53;;;-0.40;99.90;;;;;;5037995;28;20036;-74
2021/12/19 01:19:49;;;;;;;15.02;8.30;;;-0.30;99.90;;;;;;5055384;28;20037;-74
2021/12/19 01:22:16;;;;;;;12.07;7.38;;;-0.30;99.90;;;;;;5055450;28;20439;-74
2021/12/19 01:24:44;;;;;;;14.48;8.05;;;-0.30;99.90;;;;;;5054535;28;20045;-74
2021/12/19 01:27:12;;;;;;;13.70;7.97;;;-0.40;99.90;;;;;;5055235;28;20068;-74
2021/12/19 01:29:39;;;;;;;12.20;7.68;;;-0.40;99.90;;;;;;5054467;28;20044;-74
2021/12/19 01:32:13;;;;;;;15.48;8.98;;;-0.40;99.90;;;;;;5055602;28;20072;-74
2021/12/19 01:34:40;;;;;;;16.83;8.98;;;-0.30;99.90;;;;;;5054582;28;20140;-74
2021/12/19 01:37:09;;;;;;;15.27;8.82;;;-0.30;99.90;;;;;;5055817;28;20375;-74
2021/12/19 01:39:38;;;;;;;14.23;9.38;;;-0.30;99.90;;;;;;5055418;28;20087;-74
2021/12/19 01:42:09;;;;;;;17.92;9.82;;;-0.30;99.90;;;;;;5055334;28;20123;-74
2021/12/19 01:44:38;;;;;;;15.88;9.52;;;-0.20;99.90;;;;;;5037704;28;20044;-74
2021/12/19 01:47:10;;;;;;;16.23;9.43;;;-0.30;99.90;;;;;;5054394;28;20051;-74
2021/12/19 01:49:37;;;;;;;14.13;8.13;;;-0.30;99.90;;;;;;5055267;28;20134;-74
2021/12/19 01:52:05;;;;;;;15.63;9.50;;;-0.30;99.90;;;;;;5054900;28;20044;-74
2021/12/19 01:54:36;;;;;;;14.73;9.52;;;-0.30;99.90;;;;;;5054581;28;20037;-74
2021/12/19 01:57:03;;;;;;;15.95;9.95;;;-0.20;99.90;;;;;;5054275;28;20061;-74
2021/12/19 01:59:33;;;;;;;15.05;8.88;;;-0.40;99.90;;;;;;5036870;28;20048;-74
2021/12/19 02:02:26;;;;;;;16.25;10.20;;;-0.40;99.90;;;;;;5054818;28;20064;-74
2021/12/19 02:04:53;;;;;;;16.10;10.32;;;-0.50;99.90;;;;;;5035165;28;20034;-74
2021/12/19 02:07:26;;;;;;;15.85;9.55;;;-0.50;99.90;;;;;;5034801;28;20491;-74
2021/12/19 02:10:00;;;;;;;17.00;10.02;;;-0.50;99.90;;;;;;5033988;28;20565;-74
2021/12/19 02:12:53;;;;;;;16.97;9.20;;;-0.50;99.90;;;;;;5034019;28;20103;-74
2021/12/19 02:15:29;;;;;;;16.80;9.45;;;-0.40;99.90;;;;;;5018008;28;20042;-74
2021/12/19 02:18:00;;;;;;;17.02;9.65;;;-0.40;99.90;;;;;;5034687;28;20124;-73
2021/12/19 02:20:36;;;;;;;16.85;9.85;;;-0.40;99.90;;;;;;5034966;28;20414;-73
2021/12/19 02:23:28;;;;;;;17.38;9.88;;;-0.50;99.90;;;;;;5034632;28;20077;-73
2021/12/19 02:25:57;;;;;;;15.82;9.65;;;-0.40;99.90;;;;;;5034712;28;20042;-73
2021/12/19 02:28:24;;;;;;;16.05;9.90;;;-0.40;99.90;;;;;;5033455;28;20045;-73
2021/12/19 02:30:53;;;;;;;17.48;10.40;;;-0.30;99.90;;;;;;5033251;28;20128;-73
2021/12/19 02:33:33;;;;;;;15.15;9.93;;;-0.30;99.90;;;;;;5034572;28;20041;-73
2021/12/19 02:36:18;;;;;;;17.42;10.55;;;0.00;99.90;;;;;;5033792;28;20137;-73
2021/12/19 02:49:42;;;;;;;17.25;10.30;;;-0.50;99.90;;;;;;5032787;28;20064;-73
2021/12/19 02:52:59;;;;;;;14.88;9.65;;;-0.60;99.90;;;;;;5033814;28;20065;-72
2021/12/19 02:55:26;;;;;;;17.73;9.85;;;-0.70;99.90;;;;;;5031774;28;20041;-73
2021/12/19 02:57:55;;;;;;;15.60;9.65;;;-0.50;99.90;;;;;;5033616;28;20037;-73
2021/12/19 03:00:25;;;;;;;16.83;9.40;;;-0.30;99.90;;;;;;5033801;28;20049;-73
2021/12/19 03:02:52;;;;;;;15.27;10.13;;;-0.60;99.90;;;;;;5037084;28;20120;-73
2021/12/19 03:05:19;;;;;;;18.67;10.20;;;-1.00;99.90;;;;;;5053493;28;20073;-73
2021/12/19 03:07:50;;;;;;;16.73;9.80;;;-1.00;99.90;;;;;;5053538;28;20041;-73
2021/12/19 03:13:32;;;;;;;16.92;10.13;;;-0.90;99.90;;;;;;5053861;28;20441;-73
2021/12/19 03:19:20;;;;;;;16.20;9.70;;;-1.10;99.90;;;;;;5014064;28;20042;-73
2021/12/19 03:21:48;;;;;;;17.70;10.27;;;;;;;;;;5013600;28;20121;-72
2021/12/19 03:24:16;;;;;;;16.08;9.25;;;;;;;;;;5012506;28;20499;-73
2021/12/19 03:26:46;;;;;;;16.98;9.65;;;;;;;;;;5013561;28;20050;-73
2021/12/19 03:29:14;;;;;;;14.13;9.45;;;;;;;;;;5013641;28;20122;-73
2021/12/19 03:32:06;;;;;;;13.73;8.75;;;;;;;;;;5013783;28;20039;-73
2021/12/19 03:34:35;;;;;;;16.52;9.98;;;;;;;;;;4995082;28;20415;-73
2021/12/19 03:37:27;;;;;;;17.58;10.00;;;-0.90;99.90;;;;;;5013319;28;20125;-73
2021/12/19 03:40:08;;;;;;;15.82;9.45;;;-0.10;99.90;;;;;;5011608;28;20604;-73
2021/12/19 03:42:45;;;;;;;16.08;9.50;;;-0.70;99.90;;;;;;4995670;28;20045;-73
2021/12/19 03:45:38;;;;;;;16.20;10.00;;;-0.50;99.90;;;;;;5013640;28;20069;-73
2021/12/19 03:48:17;;;;;;;18.75;9.93;;;-0.70;99.90;;;;;;5013203;28;20128;-73
2021/12/19 03:50:48;;;;;;;15.48;8.77;;;-0.30;99.90;;;;;;5013476;28;20046;-73
2021/12/19 03:53:18;;;;;;;14.45;9.50;;;-0.70;99.90;;;;;;5012522;28;20046;-73
2021/12/19 03:55:45;;;;;;;16.63;9.98;;;-0.10;99.90;;;;;;5011906;28;20034;-73
2021/12/19 03:58:20;;;;;;;15.98;9.45;;;0.10;99.90;;;;;;4996150;28;20113;-73
2021/12/19 04:00:50;;;;;;;13.93;8.82;;;-0.80;99.90;;;;;;4994527;28;20080;-73
2021/12/19 04:03:44;;;;;;;13.68;9.38;;;-0.60;99.90;;;;;;5012903;28;20411;-73
2021/12/19 04:06:20;;;;;;;16.35;9.80;;;-0.40;99.90;;;;;;5013608;28;20141;-73
2021/12/19 04:09:12;;;;;;;13.02;8.48;;;-0.60;99.90;;;;;;5013549;28;20064;-72
2021/12/19 04:11:40;;;;;;;15.65;9.15;;;-0.50;99.90;;;;;;5013353;28;20510;-73
2021/12/19 04:14:09;;;;;;;15.57;9.13;;;-0.70;99.90;;;;;;5013468;28;20484;-72
2021/12/19 04:16:42;;;;;;;15.15;9.40;;;-0.40;99.90;;;;;;5012886;28;20141;-72
2021/12/19 04:19:11;;;;;;;13.93;8.15;;;;;;;;;;5013158;28;20121;-73
2021/12/19 04:21:40;;;;;;;15.23;9.57;;;;;;;;;;5013687;28;20051;-73
2021/12/19 04:24:08;;;;;;;12.23;8.60;;;;;;;;;;5011442;28;20120;-73
2021/12/19 04:26:41;;;;;;;15.50;8.80;;;;;;;;;;5013096;28;20034;-72
2021/12/19 04:29:10;;;;;;;14.32;9.43;;;-0.90;99.90;;;;;;5013337;28;20050;-73
2021/12/19 04:31:42;;;;;;;17.45;8.90;;;-0.60;99.90;;;;;;5013316;28;20038;-72
2021/12/19 04:34:16;;;;;;;15.60;9.23;;;-0.80;99.90;;;;;;5013427;28;20481;-72
2021/12/19 04:36:49;;;;;;;16.85;9.60;;;-0.80;99.90;;;;;;5013090;28;20052;-73
2021/12/19 04:40:15;;;;;;;16.42;8.93;;;-0.20;99.90;;;;;;5013062;28;20042;-72
2021/12/19 05:00:29;;;;;;;17.33;10.77;;;-0.10;99.90;;;;;;5015655;28;20042;-73
2021/12/19 05:03:15;;;;;;;18.33;10.25;;;-0.20;99.90;;;;;;5016174;28;20502;-72
2021/12/19 05:14:08;;;;;;;17.88;10.63;;;-0.30;99.90;;;;;;5016412;28;20052;-73
2021/12/19 05:14:46;;;;;;;18.60;11.27;;;-1.00;99.90;;;;;;5016175;28;20414;-73
2021/12/19 05:17:38;;;;;;;18.80;11.45;;;-0.50;99.90;;;;;;5015871;28;20046;-73
2021/12/19 05:20:18;;;;;;;19.40;10.32;;;-0.60;99.90;;;;;;5015720;28;20046;-73
2021/12/19 05:22:49;;;;;;;16.55;10.20;;;-0.70;99.90;;;;;;5016357;28;20112;-73
2021/12/19 05:25:18;;;;;;;13.50;8.88;;;-0.20;99.90;;;;;;5016103;28;20116;-73
2021/12/19 05:27:51;;;;;;;14.02;8.73;;;-0.30;99.90;;;;;;5016105;28;20454;-73
2021/12/19 05:30:19;;;;;;;15.07;8.68;;;;;;;;;;5015148;28;20038;-73
2021/12/19 05:32:50;;;;;;;15.60;8.95;;;-1.50;99.90;;;;;;5015242;28;20403;-73
2021/12/19 05:35:26;;;;;;;13.43;8.48;;;-0.60;99.90;;;;;;5015362;28;20061;-73
2021/12/19 05:46:34;;;;;;;13.15;8.55;;;-0.70;99.90;;;;;;5015059;28;20058;-73
2021/12/19 05:49:04;;;;;;;14.98;11.45;;;-0.70;99.90;;;;;;5014577;28;20052;-73
2021/12/19 05:51:33;;;;;;;18.27;12.40;;;-0.80;99.90;;;;;;5015332;28;20126;-73
2021/12/19 05:54:00;;;;;;;13.88;8.77;;;-0.50;99.90;;;;;;5014095;28;20488;-73
2021/12/19 05:56:31;;;;;;;13.02;8.20;;;-1.00;99.90;;;;;;5014828;28;20045;-73
2021/12/19 05:59:00;;;;;;;16.10;8.13;;;-0.60;99.90;;;;;;5015146;28;20125;-73
2021/12/19 06:01:28;;;;;;;13.60;8.00;;;-1.30;99.90;;;;;;5015465;28;20092;-73
2021/12/19 06:03:56;;;;;;;15.23;8.35;;;-0.50;99.90;;;;;;4997980;28;20412;-73
2021/12/19 06:06:26;;;;;;;12.40;8.35;;;-0.70;99.90;;;;;;5014274;28;20050;-74
2021/12/19 06:08:54;;;;;;;12.57;7.72;;;-0.70;99.90;;;;;;5014852;28;20128;-73
2021/12/19 06:11:23;;;;;;;15.25;7.75;;;-0.60;99.90;;;;;;5014491;28;20033;-73
2021/12/19 06:13:50;;;;;;;12.60;7.90;;;-0.60;99.90;;;;;;5014608;28;20038;-74
2021/12/19 06:16:17;;;;;;;13.00;8.07;;;;;;;;;;5014731;28;20100;-73
2021/12/19 06:18:49;;;;;;;12.23;7.38;;;;;;;;;;5014827;28;20583;-73
2021/12/19 06:21:16;;;;;;;14.52;7.93;;;-1.20;99.90;;;;;;5013378;28;20052;-73
2021/12/19 06:23:46;;;;;;;12.98;7.80;;;-0.80;99.90;;;;;;5014334;28;20535;-73
2021/12/19 06:26:13;;;;;;;15.45;8.38;;;-0.70;99.90;;;;;;5015048;28;20544;-73
2021/12/19 06:28:45;;;;;;;14.13;7.90;;;0.00;99.90;;;;;;5014739;28;20042;-73
2021/12/19 06:31:19;;;;;;;16.90;8.65;;;-0.40;99.90;;;;;;5014612;28;20560;-73
2021/12/19 06:33:46;;;;;;;13.98;8.73;;;-0.60;99.90;;;;;;5014338;28;20411;-73
2021/12/19 06:36:15;;;;;;;13.82;8.85;;;-0.60;99.90;;;;;;5014222;28;20056;-73
2021/12/19 06:38:47;;;;;;;13.52;7.75;;;-0.20;99.90;;;;;;5014541;28;20120;-73
2021/12/19 06:41:14;;;;;;;15.85;8.73;;;-0.30;99.90;;;;;;5014742;28;20042;-73
2021/12/19 06:43:47;;;;;;;12.60;7.70;;;-0.30;99.90;;;;;;5014313;28;20049;-74
2021/12/19 06:46:15;;;;;;;12.02;7.72;;;-0.10;99.90;;;;;;4997370;28;20117;-73
2021/12/19 06:48:44;;;;;;;13.05;8.48;;;-0.30;99.90;;;;;;5012268;28;20058;-74
2021/12/19 06:51:21;;;;;;;14.23;9.00;;;-0.60;99.90;;;;;;5014266;28;20124;-73
2021/12/19 06:53:48;;;;;;;14.60;8.50;;;-0.70;99.90;;;;;;4997169;28;20046;-73
2021/12/19 06:56:40;;;;;;;12.43;8.27;;;-0.30;99.90;;;;;;5014485;28;20050;-73
2021/12/19 06:59:08;;;;;;;12.60;7.70;;;0.00;99.90;;;;;;5013796;28;20038;-73
2021/12/19 07:01:38;;;;;;;15.40;8.55;;;0.20;99.90;;;;;;5014178;28;20419;-73
2021/12/19 07:04:05;;;;;;;14.60;8.32;;;0.00;99.90;;;;;;5013190;28;20045;-73
2021/12/19 07:06:33;;;;;;;13.25;8.77;;;-0.20;99.90;;;;;;5013299;28;20372;-73
2021/12/19 07:09:02;;;;;;;15.20;8.63;;;0.20;99.90;;;;;;4996282;28;20472;-73
2021/12/19 07:11:43;;;;;;;13.93;8.73;;;0.20;99.90;;;;;;5014341;28;20034;-73
2021/12/19 07:15:00;;;;;;;17.33;10.63;;;-0.40;99.90;;;;;;5013809;28;20472;-73
2021/12/19 07:17:31;;;;;;;17.27;9.00;;;0.50;99.90;;;;;;4993757;28;20129;-74
2021/12/19 07:20:03;;;;;;;13.18;7.93;;;0.60;99.90;;;;;;5001351;28;20104;-74
2021/12/19 07:22:32;;;;;;;14.68;8.48;;;-0.30;99.90;;;;;;5012864;28;20407;-74
2021/12/19 07:25:57;;;;;;;13.88;8.52;;;0.50;99.90;;;;;;5065068;22;20042;31
2021/12/19 07:28:24;;;;;;;15.43;9.95;;;0.60;99.90;;;;;;4992290;28;20497;-74
2021/12/19 07:30:53;;;;;;;18.17;11.15;;;0.20;99.90;;;;;;4994055;28;20488;-73
2021/12/19 07:33:21;;;;;;;15.88;9.27;;;0.40;99.90;;;;;;4992682;28;20085;-73
2021/12/19 07:35:50;;;;;;;13.98;9.45;;;0.40;99.90;;;;;;4994213;28;20054;-73
2021/12/19 07:38:28;;;;;;;16.27;9.80;;;0.80;99.90;;;;;;4992090;28;20496;-73
2021/12/19 07:41:01;;;;;;;15.00;9.32;;;0.80;99.90;;;;;;4993549;28;20062;-73
2021/12/19 07:43:29;;;;;;;15.02;9.35;;;0.50;99.90;;;;;;4993075;28;20043;-73
2021/12/19 07:45:58;;;;;;;25.67;12.77;;;1.10;99.90;;;;;;4994043;28;20392;-72
2021/12/19 07:48:27;;;;;;;14.05;9.45;;;0.60;99.90;;;;;;4992725;28;20043;-74
2021/12/19 07:50:55;;;;;;;14.05;8.95;;;0.60;99.90;;;;;;4980560;28;20452;-73
2021/12/19 07:53:22;;;;;;;12.98;8.73;;;0.90;99.90;;;;;;4975995;28;20038;-72
2021/12/19 07:55:55;;;;;;;16.73;9.65;;;0.90;99.90;;;;;;4993757;28;20042;-73
2021/12/19 07:58:23;;;;;;;16.30;10.15;;;0.90;99.90;;;;;;4993444;28;20176;-73
2021/12/19 08:00:52;;;;;;;16.48;9.27;;;1.30;99.90;;;;;;4993778;28;20034;-73
2021/12/19 08:03:24;;;;;;;14.38;8.73;;;1.20;99.90;;;;;;4993796;28;20042;-72
2021/12/19 08:05:54;;;;;;;14.65;8.98;;;1.60;99.90;;;;;;4994035;28;20046;-72
2021/12/19 08:08:26;;;;;;;13.07;8.82;;;1.10;99.90;;;;;;4993405;28;20050;-72
2021/12/19 08:13:43;;;;;;;16.02;9.85;;;1.70;99.90;;;;;;4993890;28;20085;-73
2021/12/19 08:16:10;;;;;;;13.32;9.32;;;1.40;99.90;;;;;;4993487;28;20038;-73
2021/12/19 08:18:37;;;;;;;16.17;9.18;;;1.50;99.90;;;;;;4992264;28;20135;-73
2021/12/19 08:21:06;;;;;;;16.80;9.52;;;1.40;99.90;;;;;;4993752;28;20424;-73
2021/12/19 08:23:35;;;;;;;19.27;11.93;;;1.50;99.90;;;;;;4993415;28;20614;-73
2021/12/19 08:26:02;;;;;;;18.20;11.10;;;2.30;99.90;;;;;;4993630;28;20047;-73
2021/12/19 08:28:29;;;;;;;15.82;9.93;;;1.70;99.90;;;;;;5013054;28;20464;-75
2021/12/19 08:30:56;;;;;;;14.57;9.50;;;2.10;99.90;;;;;;5013367;28;20124;-74
2021/12/19 08:33:25;;;;;;;15.15;9.85;;;2.30;99.90;;;;;;5014851;28;20431;-73
2021/12/19 08:35:53;;;;;;;20.60;10.73;;;2.30;99.90;;;;;;5016893;28;20096;-74
2021/12/19 08:38:20;;;;;;;16.60;10.15;;;2.00;99.90;;;;;;5016769;28;20046;-73
2021/12/19 08:41:18;;;;;;;16.63;10.05;;;2.50;99.90;;;;;;5016703;28;20073;-73
2021/12/19 08:43:46;;;;;;;23.95;15.15;;;;;;;;;;5016729;28;20440;-74
2021/12/19 08:46:41;;;;;;;16.45;10.48;;;;;;;;;;5016048;28;20439;-77
2021/12/19 08:49:09;;;;;;;16.92;10.18;;;;;;;;;;5016070;28;20125;-75
2021/12/19 08:52:04;;;;;;;16.70;9.88;;;2.40;99.90;;;;;;4998967;28;20072;-75
2021/12/19 08:54:31;;;;;;;18.13;10.30;;;2.40;99.90;;;;;;5016310;28;20181;-74
2021/12/19 08:57:48;;;;;;;22.38;12.10;;;2.30;99.90;;;;;;5016402;28;20038;-73
2021/12/19 09:00:41;;;;;;;17.75;11.02;;;2.40;99.90;;;;;;5016443;28;20037;-74
2021/12/19 09:03:11;;;;;;;17.42;10.55;;;2.50;99.90;;;;;;5015957;28;20046;-76
2021/12/19 09:05:40;;;;;;;17.50;11.45;;;2.50;99.90;;;;;;5016310;28;20550;-76
2021/12/19 09:08:07;;;;;;;17.80;10.80;;;2.40;99.90;;;;;;5016599;28;20046;-75
2021/12/19 09:10:39;;;;;;;18.15;10.88;;;2.50;99.90;;;;;;5015999;28;20037;-76
2021/12/19 09:13:06;;;;;;;16.42;9.88;;;2.60;99.90;;;;;;5015183;28;20042;-76
2021/12/19 09:15:34;;;;;;;19.50;11.05;;;2.90;99.90;;;;;;5015749;28;20050;-74
2021/12/19 09:18:06;;;;;;;21.98;11.45;;;2.50;99.90;;;;;;5015421;28;20038;-74
2021/12/19 09:20:33;;;;;;;17.52;11.25;;;2.60;99.90;;;;;;5015817;28;20092;-74
2021/12/19 09:23:04;;;;;;;19.48;11.48;;;2.80;99.90;;;;;;5015924;28;20050;-75
2021/12/19 09:25:31;;;;;;;20.58;11.48;;;2.90;99.90;;;;;;5016093;28;20058;-74
2021/12/19 09:28:24;;;;;;;20.83;12.02;;;2.90;99.90;;;;;;5015764;28;20049;-74
2021/12/19 09:30:52;;;;;;;19.75;11.60;;;3.50;99.90;;;;;;5015976;28;20049;-74
2021/12/19 09:33:21;;;;;;;18.88;11.98;;;2.90;99.90;;;;;;5015776;28;20040;-74
2021/12/19 09:35:53;;;;;;;19.05;12.50;;;3.00;99.90;;;;;;5015106;28;20037;-74
2021/12/19 09:38:21;;;;;;;20.25;12.50;;;3.00;99.90;;;;;;5015389;28;20391;-74
2021/12/19 09:41:01;;;;;;;19.73;13.40;;;3.00;99.90;;;;;;5012842;28;20088;-74
2021/12/19 09:43:41;;;;;;;20.92;12.43;;;3.20;99.90;;;;;;5012546;28;20053;-74
2021/12/19 09:46:17;;;;;;;18.55;11.75;;;3.20;99.90;;;;;;5014560;28;20046;-74
2021/12/19 09:48:48;;;;;;;18.50;11.82;;;3.50;99.90;;;;;;5015249;28;20108;-74
2021/12/19 09:51:18;;;;;;;18.58;11.98;;;4.10;99.90;;;;;;5015056;28;20120;-73
2021/12/19 09:53:45;;;;;;;20.55;12.48;;;4.40;99.90;;;;;;5015330;28;20088;-74
2021/12/19 09:56:16;;;;;;;15.13;10.82;;;4.40;99.90;;;;;;5015120;28;20515;-74
2021/12/19 09:58:45;;;;;;;21.15;12.82;;;4.00;99.90;;;;;;5014437;28;20033;-75
2021/12/19 10:01:13;;;;;;;20.55;12.20;;;3.70;99.90;;;;;;5014262;28;20045;-73
2021/12/19 10:03:40;;;;;;;19.80;11.73;;;3.90;99.90;;;;;;5013608;28;20555;-74
2021/12/19 10:06:29;;;;;;;19.67;11.82;;;3.80;99.90;;;;;;5014591;28;20038;-74
2021/12/19 10:09:17;;;;;;;20.77;11.57;;;3.70;99.90;;;;;;5015197;28;20042;-74
2021/12/19 10:14:26;;;;;;;18.53;12.27;;;3.90;99.90;;;;;;5014730;28;20050;-74
2021/12/19 10:16:59;;;;;;;18.95;12.02;;;3.90;99.90;;;;;;5014589;28;20138;-74
2021/12/19 10:19:44;;;;;;;22.30;12.82;;;4.00;99.90;;;;;;5014876;28;20124;-74
2021/12/19 10:22:29;;;;;;;18.92;12.10;;;3.90;99.90;;;;;;5014533;28;20161;-74
2021/12/19 10:24:58;;;;;;;;;;;3.90;99.90;;;;;;5014846;28;20121;-74
2021/12/19 10:27:39;;;;;;;20.67;11.75;;;4.00;99.90;;;;;;5013891;28;19929;-74
2021/12/19 10:30:29;;;;;;;19.30;11.43;;;3.90;99.90;;;;;;5014121;28;20554;-74
2021/12/19 10:32:57;;;;;;;18.80;12.23;;;3.80;99.90;;;;;;5014593;28;20455;-73
2021/12/19 10:35:30;;;;;;;20.27;12.02;;;3.90;99.90;;;;;;5014117;28;20511;-73
2021/12/19 10:38:00;;;;;;;21.38;12.10;;;4.10;99.90;;;;;;5014171;28;20046;-74
2021/12/19 10:40:30;;;;;;;19.85;12.25;;;4.00;99.90;;;;;;5014644;28;20361;-74
2021/12/19 10:43:03;;;;;;;18.38;12.07;;;4.10;99.90;;;;;;5008708;28;20140;-74
2021/12/19 10:45:44;;;;;;;25.25;13.68;;;4.10;99.90;;;;;;5014259;28;20138;-74
2021/12/19 10:48:37;;;;;;;18.98;12.35;;;4.10;99.90;;;;;;5014484;28;20042;-74
2021/12/19 10:51:15;;;;;;;20.83;12.25;;;4.30;99.90;;;;;;5014352;28;20101;-74
2021/12/19 10:53:46;;;;;;;19.27;12.95;;;4.40;99.90;;;;;;5014177;28;20149;-74
2021/12/19 10:56:20;;;;;;;18.75;11.85;;;4.40;99.90;;;;;;5013993;28;20096;-74
2021/12/19 10:58:54;;;;;;;22.25;13.27;;;;;;;;;;5013942;28;20149;-74
2021/12/19 11:01:26;;;;;;;19.50;11.98;;;;;;;;;;5014049;28;20050;-75
2021/12/19 11:03:56;;;;;;;17.20;11.02;;;;;;;;;;5013704;28;20037;-73
2021/12/19 11:06:26;;;;;;;20.70;12.75;;;;;;;;;;5013242;28;20046;-74
2021/12/19 11:08:58;;;;;;;20.45;11.57;;;;;;;;;;5014054;28;20041;-74
2021/12/19 11:11:31;;;;;;;20.08;12.20;;;;;;;;;;5013972;28;20432;-74
2021/12/19 11:13:59;;;;;;;20.00;12.45;;;;;;;;;;5013622;28;20069;-74
2021/12/19 11:16:45;;;;;;;21.13;12.88;;;;;;;;;;5014006;28;20046;-75
2021/12/19 11:19:13;;;;;;;21.80;14.05;;;;;;;;;;5013297;28;20125;-75
2021/12/19 11:22:03;;;;;;;24.05;13.55;;;;;;;;;;5013468;28;20484;-73
2021/12/19 11:24:31;;;;;;;21.08;12.18;;;;;;;;;;5013558;28;20487;-74
2021/12/19 11:27:01;;;;;;;20.80;13.40;;;;;;;;;;5012737;28;20046;-73
2021/12/19 11:29:31;;;;;;;19.60;12.10;;;;;;;;;;5013737;28;20125;-74
2021/12/19 11:32:03;;;;;;;23.75;12.10;;;;;;;;;;5013810;28;20096;-74
2021/12/19 11:34:40;;;;;;;19.58;11.80;;;;;;;;;;5014161;28;20121;-74
2021/12/19 11:37:10;;;;;;;20.70;12.23;;;;;;;;;;5014117;28;20042;-75
2021/12/19 11:39:40;;;;;;;18.48;11.05;;;;;;;;;;5013860;28;20116;-74
2021/12/19 11:42:15;;;;;;;20.10;11.95;;;;;;;;;;5013402;28;20073;-73
2021/12/19 11:45:04;;;;;;;19.58;11.57;;;;;;;;;;5013574;28;20496;-74
2021/12/19 11:47:36;;;;;;;18.15;10.98;;;;;;;;;;5013100;28;20046;-74
2021/12/19 11:50:27;;;;;;;20.40;11.90;;;;;;;;;;5011808;28;20502;-74
2021/12/19 11:53:09;;;;;;;18.88;11.13;;;;;;;;;;4994330;28;20544;-74
2021/12/19 11:55:46;;;;;;;16.80;10.88;;;;;;;;;;4994399;28;20489;-75
2021/12/19 11:58:20;;;;;;;18.33;11.57;;;;;;;;;;4994708;28;20043;-75
2021/12/19 12:00:55;;;;;;;19.33;11.85;;;;;;;;;;4994235;28;20474;-75
2021/12/19 12:03:33;;;;;;;17.92;11.70;;;;;;;;;;4994421;28;20097;-75
2021/12/19 12:06:20;;;;;;;17.40;11.07;;;;;;;;;;5000843;28;20092;-75
2021/12/19 12:09:08;;;;;;;18.38;11.52;;;;;;;;;;4998107;28;20104;-73
2021/12/19 12:11:39;;;;;;;23.00;12.35;;;;;;;;;;5017406;28;20053;-73
2021/12/19 12:14:23;;;;;;;19.77;12.27;;;;;;;;;;5019436;28;20034;-73
2021/12/19 12:17:01;;;;;;;20.83;12.82;;;;;;;;;;5017689;28;20073;-72
2021/12/19 12:19:41;;;;;;;22.52;12.68;;;;;;;;;;5017135;28;20092;-73
2021/12/19 12:25:03;;;;;;;21.35;13.25;;;;;;;;;;5015521;28;20048;-72
2021/12/19 12:27:37;;;;;;;18.45;12.40;;;;;;;;;;5015902;28;20133;-72
2021/12/19 12:30:11;;;;;;;23.27;13.57;;;;;;;;;;5017100;28;20052;-76
2021/12/19 12:32:40;;;;;;;18.52;12.63;;;;;;;;;;5016318;28;20129;-75
2021/12/19 12:35:11;;;;;;;17.85;12.68;;;;;;;;;;5016880;28;20038;-76
2021/12/19 12:37:41;;;;;;;19.02;12.52;;;;;;;;;;5016724;28;20369;-74
2021/12/19 12:40:18;;;;;;;21.70;12.63;;;;;;;;;;5017060;28;20447;-73
2021/12/19 12:43:16;;;;;;;22.85;12.95;;;;;;;;;;5016923;28;20070;-74
2021/12/19 12:45:51;;;;;;;19.40;12.55;;;;;;;;;;4997040;28;20496;-73
2021/12/19 12:48:37;;;;;;;16.85;11.93;;;;;;;;;;5016912;28;20042;-73
2021/12/19 12:51:36;;;;;;;20.50;12.90;;;;;;;;;;5016486;28;20445;-73
2021/12/19 12:54:05;;;;;;;22.33;13.75;;;;;;;;;;4997114;28;20132;-73
2021/12/19 12:56:45;;;;;;;25.77;14.30;;;;;;;;;;5017490;28;20045;-75
2021/12/19 12:59:14;;;;;;;22.90;14.05;;;;;;;;;;5016087;28;20492;-72
2021/12/19 13:01:47;;;;;;;24.30;14.27;;;;;;;;;;5015951;28;20038;-73
2021/12/19 13:04:15;;;;;;;22.95;14.52;;;;;;;;;;5012983;28;20061;-72
2021/12/19 13:06:43;;;;;;;22.88;14.57;;;;;;;;;;5016215;28;20050;-73
2021/12/19 13:09:13;;;;;;;22.65;14.38;;;;;;;;;;5015921;28;20137;-73
2021/12/19 13:11:42;;;;;;;24.98;14.35;;;;;;;;;;5016114;28;20026;-73
2021/12/19 13:14:29;;;;;;;23.17;14.60;;;;;;;;;;5016500;28;20052;-72
2021/12/19 13:17:01;;;;;;;24.33;14.60;;;;;;;;;;5015540;28;20061;-73
2021/12/19 13:19:40;;;;;;;28.05;15.35;;;;;;;;;;5015409;28;20096;-73
2021/12/19 13:22:09;;;;;;;24.83;15.63;;;;;;;;;;5015799;28;20506;-73
2021/12/19 13:24:38;;;;;;;22.83;15.00;;;;;;;;;;5015609;28;20046;-72
2021/12/19 13:27:07;;;;;;;23.80;13.95;;;;;;;;;;5014992;28;20049;-73
2021/12/19 13:29:35;;;;;;;22.15;14.30;;;;;;;;;;5014833;28;20050;-73
2021/12/19 13:32:20;;;;;;;22.48;14.00;;;;;;;;;;5015599;28;20042;-73
2021/12/19 13:34:48;;;;;;;21.77;13.57;;;;;;;;;;5015568;28;20042;-73
2021/12/19 13:37:16;;;;;;;25.40;14.82;;;;;;;;;;5015755;28;20057;-72
2021/12/19 13:40:07;;;;;;;23.00;14.60;;;;;;;;;;5015514;28;20049;-73
2021/12/19 13:42:45;;;;;;;23.58;13.95;;;;;;;;;;5011867;28;20048;-72
2021/12/19 13:45:48;;;;;;;25.95;14.05;;;;;;;;;;5013818;28;20042;-72
2021/12/19 13:48:21;;;;;;;20.88;13.43;;;;;;;;;;5005550;28;20069;-74
2021/12/19 13:51:12;;;;;;;23.98;12.95;;;;;;;;;;5011326;28;20046;-74
2021/12/19 13:53:41;;;;;;;23.63;15.90;;;;;;;;;;5014143;28;20045;-73
2021/12/19 13:56:10;;;;;;;26.15;16.73;;;;;;;;;;5015174;28;20045;-74
2021/12/19 13:58:46;;;;;;;21.05;13.43;;;;;;;;;;5014868;28;20052;-73
2021/12/19 14:01:13;;;;;;;;;;;;;;;;;;5015708;28;20096;-74
2021/12/19 14:03:40;;;;;;;26.33;14.20;;;;;;;;;;5014430;28;19925;-73
2021/12/19 14:06:35;;;;;;;23.75;14.07;;;;;;;;;;5015086;28;20073;-74
2021/12/19 14:09:05;;;;;;;22.33;13.07;;;;;;;;;;5015042;28;20080;-74
2021/12/19 14:11:40;;;;;;;24.42;14.50;;;;;;;;;;5014300;28;20038;-73
2021/12/19 14:14:23;;;;;;;20.77;12.90;;;;;;;;;;5013998;28;20137;-73
2021/12/19 14:17:03;;;;;;;23.92;14.38;;;;;;;;;;5015063;28;20528;-74
2021/12/19 14:19:34;;;;;;;24.63;14.38;;;;;;;;;;5014760;28;20073;-73
2021/12/19 14:22:06;;;;;;;22.80;13.55;;;;;;;;;;5015029;28;20064;-73
2021/12/19 14:24:44;;;;;;;23.15;13.65;;;;;;;;;;5013783;28;20036;-74
2021/12/19 14:27:26;;;;;;;24.85;14.07;;;;;;;;;;5014437;28;20596;-73
2021/12/19 14:30:01;;;;;;;21.55;13.95;;;;;;;;;;5014615;28;20049;-74
2021/12/19 14:32:36;;;;;;;26.98;14.65;;;;;;;;;;5014218;28;20125;-73
2021/12/19 14:35:13;;;;;;;21.95;15.27;;;;;;;;;;5014323;28;20496;-74
2021/12/19 14:37:42;;;;;;;24.38;15.68;;;;;;;;;;5014231;28;20393;-73
2021/12/19 14:40:14;;;;;;;23.98;14.50;;;;;;;;;;5015074;28;20065;-72
2021/12/19 14:42:44;;;;;;;21.50;13.57;;;;;;;;;;5014417;28;20050;-72
2021/12/19 14:45:25;;;;;;;23.65;13.57;;;;;;;;;;5014380;28;20052;-72
2021/12/19 14:48:01;;;;;;;23.08;14.27;;;;;;;;;;5014188;28;20042;-72
2021/12/19 14:50:40;;;;;;;21.42;13.55;;;;;;;;;;5014231;28;20046;-71
2021/12/19 14:53:35;;;;;;;23.13;13.32;;;;;;;;;;5013988;28;20069;-72
2021/12/19 14:56:29;;;;;;;24.02;15.48;;;;;;;;;;5013720;28;20129;-72
2021/12/19 14:59:02;;;;;;;22.88;13.88;;;;;;;;;;5002209;28;20094;-73